RYR3TJ LICA-LIMC
Flight info
| Callsign | RYR3TJ |
|---|---|
| Flight time | 1h 25m |
| Altitude | 38000 |
| Route | ARBUM DCT EVINO DCT PNZ DCT RIFFI DCT ELVIN DCT LUNAK DCT RAVAL DCT MEDAL DCT GILIO DCT UPDIN DCT SPEZI DCT IDONA DCT MEBUR |
| Aircraft | B38M/M-SADE3FGIJ1LRWY/SB1 |
Departure
| Time | 2026-04-26 12:17 |
|---|---|
| Airport | Lamezia Terme Sant'Eufemia International Airport (LICA) |
Arrival
| Time | 2026-04-26 13:43 |
|---|---|
| Airport | Milan Malpensa International Airport (LIMC) |
| Time | Latitude | Longitude | Altitude | Speed | Heading |
|---|---|---|---|---|---|
| 2026-04-26 11:39 | 38.90883 | 16.24371 | 34 ft | 0 kts | 54° |
| 2026-04-26 12:11 | 38.90885 | 16.24374 | 34 ft | 1 kts | 59° |
| 2026-04-26 12:11 | 38.90884 | 16.24378 | 34 ft | 1 kts | 92° |
| 2026-04-26 12:11 | 38.90871 | 16.24391 | 34 ft | 4 kts | 166° |
| 2026-04-26 12:11 | 38.90837 | 16.24389 | 34 ft | 2 kts | 166° |
| 2026-04-26 12:12 | 38.90813 | 16.24426 | 34 ft | 9 kts | 109° |
| 2026-04-26 12:12 | 38.90800 | 16.24532 | 34 ft | 15 kts | 98° |
| 2026-04-26 12:12 | 38.90784 | 16.24675 | 34 ft | 17 kts | 98° |
| 2026-04-26 12:12 | 38.90773 | 16.24775 | 34 ft | 14 kts | 98° |
| 2026-04-26 12:13 | 38.90757 | 16.24911 | 34 ft | 10 kts | 98° |
| 2026-04-26 12:13 | 38.90745 | 16.25014 | 35 ft | 13 kts | 98° |
| 2026-04-26 12:13 | 38.90731 | 16.25137 | 35 ft | 15 kts | 98° |
| 2026-04-26 12:13 | 38.90699 | 16.25271 | 35 ft | 16 kts | 130° |
| 2026-04-26 12:14 | 38.90627 | 16.25389 | 35 ft | 17 kts | 104° |
| 2026-04-26 12:14 | 38.90608 | 16.25551 | 35 ft | 20 kts | 99° |
| 2026-04-26 12:14 | 38.90586 | 16.25730 | 34 ft | 19 kts | 97° |
| 2026-04-26 12:14 | 38.90568 | 16.25911 | 35 ft | 21 kts | 97° |
| 2026-04-26 12:15 | 38.90550 | 16.26083 | 36 ft | 17 kts | 98° |
| 2026-04-26 12:15 | 38.90528 | 16.26245 | 36 ft | 19 kts | 110° |
| 2026-04-26 12:15 | 38.90484 | 16.26302 | 36 ft | 0 kts | 158° |
| 2026-04-26 12:16 | 38.90465 | 16.26301 | 35 ft | 8 kts | 186° |
| 2026-04-26 12:16 | 38.90361 | 16.26283 | 35 ft | 21 kts | 194° |
| 2026-04-26 12:16 | 38.90322 | 16.26113 | 35 ft | 28 kts | 277° |
| 2026-04-26 12:17 | 38.90381 | 16.25568 | 34 ft | 98 kts | 278° |
| 2026-04-26 12:17 | 38.90514 | 16.24439 | 54 ft | 154 kts | 278° |
| 2026-04-26 12:17 | 38.90694 | 16.23002 | 582 ft | 167 kts | 277° |
| 2026-04-26 12:17 | 38.90868 | 16.21495 | 1472 ft | 167 kts | 278° |
| 2026-04-26 12:18 | 38.91050 | 16.19964 | 2030 ft | 186 kts | 278° |
| 2026-04-26 12:18 | 38.91254 | 16.18227 | 2368 ft | 208 kts | 278° |
| 2026-04-26 12:18 | 38.91474 | 16.16294 | 2695 ft | 229 kts | 278° |
| 2026-04-26 12:18 | 38.91709 | 16.14209 | 3183 ft | 240 kts | 278° |
| 2026-04-26 12:19 | 38.92205 | 16.12214 | 4038 ft | 238 kts | 302° |
| 2026-04-26 12:19 | 38.93249 | 16.10451 | 4639 ft | 254 kts | 309° |
| 2026-04-26 12:19 | 38.94389 | 16.08661 | 5161 ft | 269 kts | 309° |
| 2026-04-26 12:19 | 38.95580 | 16.06814 | 6011 ft | 269 kts | 310° |
| 2026-04-26 12:20 | 38.96792 | 16.04951 | 6787 ft | 274 kts | 311° |
| 2026-04-26 12:20 | 38.98025 | 16.03068 | 7564 ft | 276 kts | 311° |
| 2026-04-26 12:20 | 38.99284 | 16.01149 | 8369 ft | 278 kts | 311° |
| 2026-04-26 12:20 | 39.00539 | 15.99240 | 9159 ft | 281 kts | 311° |
| 2026-04-26 12:21 | 39.01792 | 15.97335 | 9930 ft | 284 kts | 311° |
| 2026-04-26 12:21 | 39.03094 | 15.95391 | 10540 ft | 292 kts | 315° |
| 2026-04-26 12:21 | 39.04821 | 15.93916 | 10884 ft | 307 kts | 336° |
| 2026-04-26 12:21 | 39.06811 | 15.92745 | 11322 ft | 320 kts | 335° |
| 2026-04-26 12:22 | 39.08837 | 15.91529 | 12053 ft | 323 kts | 335° |
| 2026-04-26 12:22 | 39.10890 | 15.90306 | 12788 ft | 328 kts | 334° |
| 2026-04-26 12:22 | 39.13007 | 15.89050 | 13538 ft | 333 kts | 334° |
| 2026-04-26 12:22 | 39.15127 | 15.87796 | 14267 ft | 338 kts | 334° |
| 2026-04-26 12:23 | 39.17277 | 15.86524 | 14973 ft | 342 kts | 334° |
| 2026-04-26 12:23 | 39.19418 | 15.85257 | 15697 ft | 345 kts | 334° |
| 2026-04-26 12:23 | 39.21610 | 15.83958 | 16402 ft | 349 kts | 334° |
| 2026-04-26 12:23 | 39.23828 | 15.82644 | 17101 ft | 353 kts | 334° |
| 2026-04-26 12:24 | 39.26072 | 15.81312 | 17793 ft | 357 kts | 334° |
| 2026-04-26 12:24 | 39.28246 | 15.79761 | 18443 ft | 359 kts | 321° |
| 2026-04-26 12:24 | 39.30159 | 15.77678 | 19025 ft | 362 kts | 319° |
| 2026-04-26 12:25 | 39.34041 | 15.73448 | 20167 ft | 368 kts | 319° |
| 2026-04-26 12:25 | 39.35999 | 15.71297 | 20719 ft | 371 kts | 319° |
| 2026-04-26 12:25 | 39.37971 | 15.69126 | 21301 ft | 374 kts | 319° |
| 2026-04-26 12:25 | 39.39955 | 15.66939 | 21860 ft | 377 kts | 318° |
| 2026-04-26 12:26 | 39.41959 | 15.64727 | 22415 ft | 380 kts | 318° |
| 2026-04-26 12:26 | 39.43977 | 15.62499 | 22970 ft | 383 kts | 318° |
| 2026-04-26 12:26 | 39.46009 | 15.60253 | 23521 ft | 386 kts | 318° |
| 2026-04-26 12:26 | 39.48061 | 15.57983 | 24015 ft | 390 kts | 318° |
| 2026-04-26 12:27 | 39.50128 | 15.55694 | 24484 ft | 392 kts | 318° |
| 2026-04-26 12:27 | 39.52210 | 15.53387 | 24931 ft | 395 kts | 318° |
| 2026-04-26 12:27 | 39.54304 | 15.51065 | 25385 ft | 398 kts | 318° |
| 2026-04-26 12:27 | 39.56414 | 15.48723 | 25832 ft | 401 kts | 319° |
| 2026-04-26 12:28 | 39.58535 | 15.46367 | 26268 ft | 404 kts | 318° |
| 2026-04-26 12:28 | 39.60675 | 15.43988 | 26706 ft | 406 kts | 319° |
| 2026-04-26 12:28 | 39.62827 | 15.41593 | 27128 ft | 409 kts | 319° |
| 2026-04-26 12:28 | 39.64992 | 15.39182 | 27554 ft | 412 kts | 318° |
| 2026-04-26 12:29 | 39.67170 | 15.36755 | 27968 ft | 414 kts | 319° |
| 2026-04-26 12:29 | 39.69363 | 15.34311 | 28366 ft | 417 kts | 318° |
| 2026-04-26 12:29 | 39.73115 | 15.28601 | 29168 ft | 420 kts | 304° |
| 2026-04-26 12:30 | 39.74788 | 15.25470 | 29493 ft | 424 kts | 304° |
| 2026-04-26 12:30 | 39.76466 | 15.22306 | 29885 ft | 426 kts | 304° |
| 2026-04-26 12:30 | 39.78142 | 15.19121 | 30264 ft | 428 kts | 304° |
| 2026-04-26 12:31 | 39.81513 | 15.12687 | 30901 ft | 432 kts | 303° |
| 2026-04-26 12:31 | 39.83210 | 15.09443 | 31228 ft | 434 kts | 303° |
| 2026-04-26 12:31 | 39.84910 | 15.06189 | 31553 ft | 436 kts | 303° |
| 2026-04-26 12:31 | 39.86619 | 15.02913 | 31853 ft | 438 kts | 303° |
| 2026-04-26 12:32 | 39.88335 | 14.99621 | 32160 ft | 440 kts | 303° |
| 2026-04-26 12:32 | 39.90056 | 14.96316 | 32469 ft | 442 kts | 303° |
| 2026-04-26 12:32 | 39.93521 | 14.89653 | 33078 ft | 446 kts | 303° |
| 2026-04-26 12:33 | 39.95262 | 14.86297 | 33395 ft | 447 kts | 303° |
| 2026-04-26 12:33 | 39.97002 | 14.82943 | 33806 ft | 446 kts | 303° |
| 2026-04-26 12:33 | 39.98738 | 14.79592 | 34199 ft | 446 kts | 303° |
| 2026-04-26 12:33 | 40.00470 | 14.76243 | 34546 ft | 445 kts | 303° |
| 2026-04-26 12:34 | 40.02236 | 14.72932 | 34876 ft | 444 kts | 308° |
| 2026-04-26 12:34 | 40.04417 | 14.70094 | 35231 ft | 443 kts | 322° |
| 2026-04-26 12:34 | 40.06840 | 14.67621 | 35561 ft | 442 kts | 319° |
| 2026-04-26 12:34 | 40.09199 | 14.65043 | 35838 ft | 442 kts | 319° |
| 2026-04-26 12:35 | 40.11549 | 14.62451 | 36157 ft | 441 kts | 319° |
| 2026-04-26 12:35 | 40.13891 | 14.59857 | 36468 ft | 440 kts | 319° |
| 2026-04-26 12:35 | 40.16221 | 14.57271 | 36778 ft | 439 kts | 319° |
| 2026-04-26 12:35 | 40.18548 | 14.54686 | 37066 ft | 439 kts | 319° |
| 2026-04-26 12:36 | 40.20871 | 14.52102 | 37360 ft | 438 kts | 319° |
| 2026-04-26 12:36 | 40.23189 | 14.49522 | 37644 ft | 437 kts | 319° |
| 2026-04-26 12:36 | 40.25500 | 14.46947 | 37915 ft | 436 kts | 318° |
| 2026-04-26 12:36 | 40.27028 | 14.45243 | 38081 ft | 436 kts | 318° |
| 2026-04-26 12:37 | 40.29332 | 14.42670 | 38180 ft | 436 kts | 318° |
| 2026-04-26 12:37 | 40.33938 | 14.37523 | 38158 ft | 433 kts | 318° |
| 2026-04-26 12:38 | 40.38524 | 14.32387 | 38156 ft | 434 kts | 318° |
| 2026-04-26 12:38 | 40.43116 | 14.27237 | 38155 ft | 434 kts | 318° |
| 2026-04-26 12:39 | 40.47699 | 14.22086 | 38152 ft | 434 kts | 318° |
| 2026-04-26 12:39 | 40.52283 | 14.16923 | 38154 ft | 434 kts | 318° |
| 2026-04-26 12:40 | 40.56861 | 14.11759 | 38153 ft | 433 kts | 318° |
| 2026-04-26 12:40 | 40.61438 | 14.06585 | 38151 ft | 434 kts | 318° |
| 2026-04-26 12:41 | 40.66016 | 14.01401 | 38151 ft | 434 kts | 318° |
| 2026-04-26 12:41 | 40.70589 | 13.96213 | 38150 ft | 434 kts | 318° |
| 2026-04-26 12:42 | 40.75159 | 13.91019 | 38149 ft | 434 kts | 318° |
| 2026-04-26 12:42 | 40.79724 | 13.85821 | 38149 ft | 433 kts | 318° |
| 2026-04-26 12:43 | 40.84282 | 13.80620 | 38150 ft | 433 kts | 318° |
| 2026-04-26 12:43 | 40.88841 | 13.75408 | 38150 ft | 433 kts | 318° |
| 2026-04-26 12:44 | 40.93398 | 13.70189 | 38147 ft | 433 kts | 318° |
| 2026-04-26 12:44 | 40.97951 | 13.64965 | 38150 ft | 433 kts | 318° |
| 2026-04-26 12:45 | 41.02502 | 13.59733 | 38151 ft | 433 kts | 318° |
| 2026-04-26 12:45 | 41.07047 | 13.54499 | 38151 ft | 433 kts | 317° |
| 2026-04-26 12:46 | 41.11590 | 13.49255 | 38148 ft | 433 kts | 317° |
| 2026-04-26 12:46 | 41.16102 | 13.44039 | 38153 ft | 433 kts | 317° |
| 2026-04-26 12:47 | 41.20640 | 13.38782 | 38145 ft | 433 kts | 317° |
| 2026-04-26 12:47 | 41.25169 | 13.33526 | 38144 ft | 433 kts | 317° |
| 2026-04-26 12:48 | 41.29700 | 13.28257 | 38146 ft | 432 kts | 317° |
| 2026-04-26 12:48 | 41.34224 | 13.22986 | 38146 ft | 432 kts | 317° |
| 2026-04-26 12:49 | 41.38745 | 13.17708 | 38137 ft | 432 kts | 317° |
| 2026-04-26 12:49 | 41.43263 | 13.12424 | 38142 ft | 432 kts | 317° |
| 2026-04-26 12:50 | 41.47807 | 13.07100 | 38147 ft | 432 kts | 317° |
| 2026-04-26 12:50 | 41.52287 | 13.01839 | 38142 ft | 432 kts | 317° |
| 2026-04-26 12:51 | 41.56790 | 12.96543 | 38141 ft | 432 kts | 317° |
| 2026-04-26 12:51 | 41.61293 | 12.91236 | 38148 ft | 431 kts | 317° |
| 2026-04-26 12:52 | 41.65787 | 12.85928 | 38146 ft | 431 kts | 317° |
| 2026-04-26 12:52 | 41.70279 | 12.80613 | 38151 ft | 431 kts | 317° |
| 2026-04-26 12:53 | 41.74770 | 12.75290 | 38157 ft | 431 kts | 317° |
| 2026-04-26 12:53 | 41.79258 | 12.69958 | 38157 ft | 431 kts | 317° |
| 2026-04-26 12:54 | 41.83742 | 12.64622 | 38157 ft | 431 kts | 317° |
| 2026-04-26 12:54 | 41.88220 | 12.59282 | 38160 ft | 431 kts | 317° |
| 2026-04-26 12:55 | 41.92696 | 12.53933 | 38132 ft | 431 kts | 317° |
| 2026-04-26 12:55 | 41.97168 | 12.48580 | 38131 ft | 431 kts | 317° |
| 2026-04-26 12:56 | 42.01643 | 12.43213 | 38134 ft | 431 kts | 317° |
| 2026-04-26 12:56 | 42.06113 | 12.37840 | 38129 ft | 431 kts | 317° |
| 2026-04-26 12:57 | 42.10579 | 12.32462 | 38132 ft | 431 kts | 317° |
| 2026-04-26 12:57 | 42.15046 | 12.27071 | 38213 ft | 431 kts | 317° |
| 2026-04-26 12:58 | 42.21743 | 12.18972 | 38130 ft | 431 kts | 317° |
| 2026-04-26 12:58 | 42.26206 | 12.13560 | 38129 ft | 431 kts | 317° |
| 2026-04-26 12:59 | 42.30662 | 12.08146 | 38135 ft | 431 kts | 316° |
| 2026-04-26 12:59 | 42.35115 | 12.02724 | 38127 ft | 431 kts | 316° |
| 2026-04-26 13:00 | 42.39566 | 11.97295 | 38130 ft | 431 kts | 316° |
| 2026-04-26 13:00 | 42.43978 | 11.91903 | 38128 ft | 431 kts | 316° |
| 2026-04-26 13:01 | 42.48426 | 11.86455 | 38133 ft | 431 kts | 316° |
| 2026-04-26 13:01 | 42.52868 | 11.81004 | 38134 ft | 431 kts | 316° |
| 2026-04-26 13:02 | 42.57309 | 11.75543 | 38136 ft | 431 kts | 316° |
| 2026-04-26 13:02 | 42.61746 | 11.70076 | 38141 ft | 431 kts | 316° |
| 2026-04-26 13:03 | 42.66178 | 11.64605 | 38137 ft | 431 kts | 316° |
| 2026-04-26 13:03 | 42.70606 | 11.59127 | 38138 ft | 431 kts | 316° |
| 2026-04-26 13:04 | 42.75037 | 11.53635 | 38140 ft | 431 kts | 316° |
| 2026-04-26 13:04 | 42.79467 | 11.48132 | 38138 ft | 431 kts | 316° |
| 2026-04-26 13:05 | 42.83895 | 11.42621 | 38132 ft | 431 kts | 316° |
| 2026-04-26 13:05 | 42.88314 | 11.37110 | 38133 ft | 431 kts | 316° |
| 2026-04-26 13:06 | 42.92742 | 11.31577 | 38131 ft | 431 kts | 316° |
| 2026-04-26 13:06 | 42.97161 | 11.26044 | 38130 ft | 431 kts | 316° |
| 2026-04-26 13:07 | 43.01572 | 11.20508 | 38128 ft | 431 kts | 316° |
| 2026-04-26 13:07 | 43.05990 | 11.14954 | 38129 ft | 431 kts | 316° |
| 2026-04-26 13:08 | 43.10404 | 11.09392 | 38130 ft | 431 kts | 315° |
| 2026-04-26 13:08 | 43.14814 | 11.03825 | 38131 ft | 431 kts | 315° |
| 2026-04-26 13:09 | 43.19221 | 10.98249 | 38135 ft | 431 kts | 315° |
| 2026-04-26 13:09 | 43.23625 | 10.92666 | 38135 ft | 431 kts | 315° |
| 2026-04-26 13:10 | 43.28024 | 10.87078 | 38140 ft | 431 kts | 315° |
| 2026-04-26 13:10 | 43.32418 | 10.81484 | 38144 ft | 431 kts | 315° |
| 2026-04-26 13:11 | 43.36809 | 10.75884 | 38143 ft | 431 kts | 315° |
| 2026-04-26 13:11 | 43.41201 | 10.70269 | 38142 ft | 431 kts | 315° |
| 2026-04-26 13:12 | 43.45586 | 10.64653 | 38144 ft | 431 kts | 315° |
| 2026-04-26 13:12 | 43.49968 | 10.59029 | 38152 ft | 431 kts | 315° |
| 2026-04-26 13:13 | 43.54346 | 10.53397 | 38151 ft | 430 kts | 315° |
| 2026-04-26 13:13 | 43.58717 | 10.47763 | 38157 ft | 430 kts | 315° |
| 2026-04-26 13:14 | 43.63088 | 10.42118 | 38156 ft | 430 kts | 315° |
| 2026-04-26 13:14 | 43.67451 | 10.36471 | 38159 ft | 430 kts | 315° |
| 2026-04-26 13:15 | 43.71813 | 10.30813 | 38155 ft | 430 kts | 315° |
| 2026-04-26 13:15 | 43.75431 | 10.26113 | 38159 ft | 429 kts | 315° |
| 2026-04-26 13:16 | 43.80512 | 10.19495 | 38160 ft | 428 kts | 315° |
| 2026-04-26 13:16 | 43.84832 | 10.13857 | 38158 ft | 426 kts | 315° |
| 2026-04-26 13:17 | 43.91297 | 10.05396 | 38158 ft | 426 kts | 315° |
| 2026-04-26 13:18 | 43.97731 | 9.96952 | 38088 ft | 426 kts | 315° |
| 2026-04-26 13:18 | 44.01970 | 9.91373 | 36283 ft | 431 kts | 315° |
| 2026-04-26 13:19 | 44.04135 | 9.88519 | 35364 ft | 428 kts | 315° |
| 2026-04-26 13:19 | 44.06287 | 9.85679 | 34500 ft | 424 kts | 315° |
| 2026-04-26 13:19 | 44.08410 | 9.82874 | 33592 ft | 420 kts | 315° |
| 2026-04-26 13:19 | 44.10518 | 9.80086 | 32669 ft | 416 kts | 315° |
| 2026-04-26 13:20 | 44.12600 | 9.77330 | 31776 ft | 411 kts | 315° |
| 2026-04-26 13:20 | 44.14662 | 9.74598 | 30938 ft | 407 kts | 315° |
| 2026-04-26 13:20 | 44.16700 | 9.71895 | 30122 ft | 403 kts | 315° |
| 2026-04-26 13:20 | 44.18717 | 9.69218 | 29228 ft | 398 kts | 315° |
| 2026-04-26 13:21 | 44.20690 | 9.66595 | 28720 ft | 385 kts | 315° |
| 2026-04-26 13:21 | 44.21959 | 9.64908 | 28458 ft | 376 kts | 315° |
| 2026-04-26 13:21 | 44.24431 | 9.61616 | 27930 ft | 359 kts | 315° |
| 2026-04-26 13:21 | 44.26205 | 9.59253 | 27544 ft | 348 kts | 315° |
| 2026-04-26 13:22 | 44.27353 | 9.57723 | 27295 ft | 341 kts | 315° |
| 2026-04-26 13:22 | 44.29041 | 9.55470 | 26935 ft | 333 kts | 315° |
| 2026-04-26 13:22 | 44.30737 | 9.53204 | 26549 ft | 342 kts | 315° |
| 2026-04-26 13:22 | 44.32465 | 9.50895 | 26181 ft | 346 kts | 315° |
| 2026-04-26 13:23 | 44.34209 | 9.48560 | 25817 ft | 348 kts | 315° |
| 2026-04-26 13:23 | 44.35955 | 9.46222 | 25460 ft | 347 kts | 315° |
| 2026-04-26 13:23 | 44.37691 | 9.43895 | 25090 ft | 345 kts | 315° |
| 2026-04-26 13:23 | 44.39422 | 9.41573 | 24734 ft | 344 kts | 315° |
| 2026-04-26 13:24 | 44.41144 | 9.39261 | 24374 ft | 342 kts | 315° |
| 2026-04-26 13:24 | 44.42859 | 9.36957 | 24013 ft | 341 kts | 315° |
| 2026-04-26 13:24 | 44.44567 | 9.34659 | 23649 ft | 340 kts | 315° |
| 2026-04-26 13:24 | 44.46264 | 9.32376 | 23242 ft | 338 kts | 315° |
| 2026-04-26 13:25 | 44.47956 | 9.30095 | 22879 ft | 337 kts | 315° |
| 2026-04-26 13:25 | 44.49641 | 9.27824 | 22529 ft | 335 kts | 315° |
| 2026-04-26 13:25 | 44.51314 | 9.25565 | 22188 ft | 334 kts | 315° |
| 2026-04-26 13:25 | 44.52986 | 9.23308 | 21845 ft | 333 kts | 315° |
| 2026-04-26 13:26 | 44.54646 | 9.21064 | 21504 ft | 331 kts | 315° |
| 2026-04-26 13:26 | 44.56293 | 9.18835 | 21161 ft | 328 kts | 315° |
| 2026-04-26 13:26 | 44.57930 | 9.16618 | 20827 ft | 325 kts | 315° |
| 2026-04-26 13:26 | 44.59551 | 9.14422 | 20494 ft | 323 kts | 315° |
| 2026-04-26 13:27 | 44.61159 | 9.12241 | 20162 ft | 320 kts | 315° |
| 2026-04-26 13:27 | 44.62753 | 9.10077 | 19837 ft | 318 kts | 315° |
| 2026-04-26 13:27 | 44.64336 | 9.07927 | 19512 ft | 316 kts | 315° |
| 2026-04-26 13:27 | 44.65910 | 9.05788 | 19182 ft | 314 kts | 315° |
| 2026-04-26 13:28 | 44.67474 | 9.03660 | 18859 ft | 312 kts | 315° |
| 2026-04-26 13:28 | 44.69029 | 9.01541 | 18534 ft | 310 kts | 315° |
| 2026-04-26 13:28 | 44.70571 | 8.99441 | 18187 ft | 309 kts | 315° |
| 2026-04-26 13:28 | 44.72106 | 8.97346 | 17839 ft | 306 kts | 315° |
| 2026-04-26 13:29 | 44.73608 | 8.95296 | 17515 ft | 304 kts | 315° |
| 2026-04-26 13:29 | 44.74632 | 8.93898 | 17296 ft | 302 kts | 315° |
| 2026-04-26 13:29 | 44.76616 | 8.91188 | 16869 ft | 298 kts | 315° |
| 2026-04-26 13:29 | 44.78105 | 8.89151 | 16577 ft | 301 kts | 315° |
| 2026-04-26 13:30 | 44.79615 | 8.87082 | 16261 ft | 305 kts | 315° |
| 2026-04-26 13:30 | 44.81142 | 8.84991 | 15944 ft | 307 kts | 315° |
| 2026-04-26 13:30 | 44.82687 | 8.82928 | 15624 ft | 305 kts | 321° |
| 2026-04-26 13:30 | 44.84538 | 8.81596 | 15310 ft | 295 kts | 346° |
| 2026-04-26 13:31 | 44.86543 | 8.81390 | 15019 ft | 285 kts | 2° |
| 2026-04-26 13:31 | 44.88488 | 8.81561 | 14729 ft | 275 kts | 3° |
| 2026-04-26 13:31 | 44.90367 | 8.81737 | 14446 ft | 266 kts | 3° |
| 2026-04-26 13:31 | 44.92190 | 8.81901 | 14134 ft | 261 kts | 3° |
| 2026-04-26 13:32 | 44.94035 | 8.82061 | 13611 ft | 273 kts | 3° |
| 2026-04-26 13:32 | 44.95970 | 8.82227 | 13013 ft | 283 kts | 3° |
| 2026-04-26 13:32 | 44.97978 | 8.82397 | 12421 ft | 287 kts | 3° |
| 2026-04-26 13:32 | 44.99985 | 8.82567 | 11841 ft | 291 kts | 3° |
| 2026-04-26 13:33 | 45.02009 | 8.82741 | 11268 ft | 292 kts | 3° |
| 2026-04-26 13:33 | 45.04000 | 8.82915 | 10823 ft | 287 kts | 3° |
| 2026-04-26 13:33 | 45.05992 | 8.83090 | 10281 ft | 286 kts | 3° |
| 2026-04-26 13:33 | 45.07979 | 8.83263 | 9724 ft | 286 kts | 3° |
| 2026-04-26 13:34 | 45.09946 | 8.83452 | 9256 ft | 281 kts | 4° |
| 2026-04-26 13:34 | 45.11867 | 8.83645 | 8915 ft | 272 kts | 4° |
| 2026-04-26 13:34 | 45.13710 | 8.83821 | 8709 ft | 258 kts | 4° |
| 2026-04-26 13:34 | 45.14898 | 8.83933 | 8619 ft | 248 kts | 4° |
| 2026-04-26 13:35 | 45.17090 | 8.84135 | 8437 ft | 230 kts | 4° |
| 2026-04-26 13:35 | 45.18654 | 8.84279 | 8320 ft | 222 kts | 4° |
| 2026-04-26 13:35 | 45.20221 | 8.84412 | 8197 ft | 231 kts | 0° |
| 2026-04-26 13:35 | 45.21833 | 8.84143 | 7929 ft | 237 kts | 349° |
| 2026-04-26 13:36 | 45.23464 | 8.83687 | 7613 ft | 240 kts | 349° |
| 2026-04-26 13:36 | 45.25109 | 8.83232 | 7319 ft | 240 kts | 349° |
| 2026-04-26 13:36 | 45.26740 | 8.82783 | 7010 ft | 242 kts | 348° |
| 2026-04-26 13:36 | 45.28387 | 8.82333 | 6810 ft | 239 kts | 349° |
| 2026-04-26 13:37 | 45.30028 | 8.81888 | 6527 ft | 241 kts | 349° |
| 2026-04-26 13:37 | 45.31687 | 8.81435 | 6220 ft | 246 kts | 349° |
| 2026-04-26 13:37 | 45.33376 | 8.80975 | 5885 ft | 248 kts | 349° |
| 2026-04-26 13:37 | 45.35072 | 8.80512 | 5591 ft | 248 kts | 349° |
| 2026-04-26 13:38 | 45.36749 | 8.80058 | 5390 ft | 242 kts | 350° |
| 2026-04-26 13:38 | 45.38419 | 8.79876 | 5155 ft | 240 kts | 358° |
| 2026-04-26 13:38 | 45.40072 | 8.79653 | 4912 ft | 236 kts | 351° |
| 2026-04-26 13:38 | 45.41673 | 8.79238 | 4614 ft | 231 kts | 349° |
| 2026-04-26 13:39 | 45.43239 | 8.78798 | 4291 ft | 227 kts | 349° |
| 2026-04-26 13:39 | 45.44776 | 8.78374 | 4004 ft | 224 kts | 349° |
| 2026-04-26 13:39 | 45.46295 | 8.77958 | 3712 ft | 221 kts | 349° |
| 2026-04-26 13:39 | 45.47790 | 8.77540 | 3416 ft | 217 kts | 349° |
| 2026-04-26 13:40 | 45.49243 | 8.77146 | 3144 ft | 208 kts | 349° |
| 2026-04-26 13:40 | 45.50649 | 8.76761 | 2884 ft | 205 kts | 349° |
| 2026-04-26 13:40 | 45.52041 | 8.76374 | 2604 ft | 202 kts | 349° |
| 2026-04-26 13:40 | 45.53370 | 8.76011 | 2358 ft | 185 kts | 349° |
| 2026-04-26 13:41 | 45.54592 | 8.75674 | 2145 ft | 177 kts | 349° |
| 2026-04-26 13:41 | 45.55782 | 8.75347 | 1883 ft | 171 kts | 349° |
| 2026-04-26 13:41 | 45.56945 | 8.75026 | 1688 ft | 167 kts | 349° |
| 2026-04-26 13:41 | 45.58057 | 8.74719 | 1475 ft | 159 kts | 349° |
| 2026-04-26 13:42 | 45.59128 | 8.74423 | 1237 ft | 155 kts | 350° |
| 2026-04-26 13:42 | 45.60185 | 8.74131 | 1026 ft | 154 kts | 350° |
| 2026-04-26 13:42 | 45.61237 | 8.73841 | 834 ft | 154 kts | 351° |
| 2026-04-26 13:42 | 45.62254 | 8.73563 | 741 ft | 131 kts | 349° |
| 2026-04-26 13:43 | 45.62897 | 8.73390 | 739 ft | 61 kts | 348° |
| 2026-04-26 13:43 | 45.63161 | 8.73224 | 739 ft | 30 kts | 323° |
| 2026-04-26 13:43 | 45.63280 | 8.73029 | 739 ft | 20 kts | 304° |
| 2026-04-26 13:43 | 45.63362 | 8.72856 | 739 ft | 22 kts | 304° |
| 2026-04-26 13:44 | 45.63409 | 8.72675 | 739 ft | 16 kts | 270° |
| 2026-04-26 13:44 | 45.63391 | 8.72505 | 739 ft | 18 kts | 259° |
| 2026-04-26 13:44 | 45.63364 | 8.72316 | 740 ft | 19 kts | 258° |
| 2026-04-26 13:44 | 45.63337 | 8.72121 | 741 ft | 19 kts | 258° |
| 2026-04-26 13:45 | 45.63309 | 8.71918 | 739 ft | 21 kts | 259° |
| 2026-04-26 13:45 | 45.63291 | 8.71797 | 739 ft | 12 kts | 263° |
| 2026-04-26 13:45 | 45.63276 | 8.71683 | 738 ft | 7 kts | 236° |
| 2026-04-26 13:45 | 45.63229 | 8.71668 | 738 ft | 8 kts | 169° |
| 2026-04-26 13:46 | 45.63165 | 8.71685 | 737 ft | 11 kts | 169° |
| 2026-04-26 13:46 | 45.63082 | 8.71709 | 739 ft | 13 kts | 169° |
| 2026-04-26 13:46 | 45.62984 | 8.71721 | 739 ft | 15 kts | 205° |
| 2026-04-26 13:46 | 45.62945 | 8.71606 | 739 ft | 13 kts | 259° |
| 2026-04-26 13:47 | 45.62918 | 8.71566 | 739 ft | 2 kts | 175° |
| 2026-04-26 13:47 | 45.62900 | 8.71574 | 739 ft | 4 kts | 165° |
| 2026-04-26 13:47 | 45.62876 | 8.71581 | 738 ft | 0 kts | 168° |